Terminal Aerodrome Forecast
Issued by NWS Cleveland, OH

Home | Current Version | Previous Version | Graphics & Text | Print | Product List | Glossary On
Versions: 1 2 3 4 5 6 7 8 9 10 11 12 13 14 15 16 17 18 19 20 21 22
000
FTUS41 KCLE 252300
TAFTOL
TAF
KTOL 252325Z 2600/2624 14004KT P6SM BKN200
     FM260400 18004KT P6SM BKN200
      TEMPO 2606/2609 6SM BR
     FM260900 21004KT 6SM BR SCT250
      TEMPO 2609/2613 3SM BR
     FM261400 25008KT P6SM SCT045 BKN250
     FM262000 25008KT P6SM VCTS SCT045CB BKN120=

USA.gov is the U.S. government's official web portal to all federal, state and local government web resources and services.